KNYC

Central Park Airport

New York City, New York, USA
METAR KNYC 191051Z AUTO 00000KT 10SM CLR 21/19 A2987 RMK AO2 SLP104 T02060189 $
Observed Flight Rules
Sep-19 @ 10:51 UTC (55 minutes ago) Visual Flight Rules
Visibility Clouds
10 miles
  • Clear skies
Temperatures Readings
Current 21°C / 70°F
Dewpoint 19°C / 66°F
Humidity 88%
Altimeter 29.87" Hg
Pressure 1010.4 hPa
Elevation 11
METAR KNYC 191051Z AUTO 00000KT 10SM CLR 21/19 A2987 RMK AO2 SLP104 T02060189 $
Observed Flight Rules
Sep-19 @ 10:51 UTC
(55 minutes ago)
VFR
Clouds
  • Clear skies
Temperature Dewpoint
21°C / 70°F 19°C / 66°F
Humidity Altimeter Pressure
88% 29.87" Hg 1010.4 hPa